Time;durP1;ratioP1;P1;durP2;ratioP2;P2;SDS_P1;SDS_P2;PMS_P1;PMS_P2;Temp;Humidity;BMP_temperature;BMP_pressure;BME280_temperature;BME280_humidity;BME280_pressure;Samples;Min_cycle;Max_cycle;Signal;HPM_P1;HPM_P2
2022/08/24 00:00:53;;;;;;;4.50;2.50;;;;;;;;;;5039247;28;21823;-58
2022/08/24 00:03:20;;;;;;;4.30;2.55;;;;;;;;;;5024445;28;20115;-59
2022/08/24 00:05:47;;;;;;;4.95;2.78;;;;;;;;;;5023761;28;20160;-61
2022/08/24 00:08:14;;;;;;;4.55;2.50;;;;;;;;;;5022856;28;22377;-61
2022/08/24 00:10:41;;;;;;;9.40;3.00;;;;;;;;;;5023740;28;20048;-60
2022/08/24 00:13:08;;;;;;;4.65;2.67;;;;;;;;;;5026335;28;20038;-60
2022/08/24 00:15:34;;;;;;;4.82;2.63;;;;;;;;;;5022383;28;20042;-59
2022/08/24 00:18:01;;;;;;;4.90;2.90;;;;;;;;;;5023442;28;20052;-60
2022/08/24 00:20:28;;;;;;;5.05;2.67;;;;;;;;;;5022829;28;20128;-59
2022/08/24 00:22:54;;;;;;;4.85;2.42;;;;;;;;;;5023466;28;20069;-60
2022/08/24 00:25:21;;;;;;;4.10;2.25;;;;;;;;;;5021712;28;20045;-61
2022/08/24 00:27:47;;;;;;;5.15;2.50;;;;;;;;;;5021578;28;20033;-60
2022/08/24 00:30:16;;;;;;;4.53;2.40;;;;;;;;;;5024821;28;20046;-60
2022/08/24 00:32:44;;;;;;;5.53;2.42;;;;;;;;;;5023940;28;20095;-60
2022/08/24 00:35:12;;;;;;;5.00;2.67;;;;;;;;;;5023998;28;20048;-59
2022/08/24 00:37:39;;;;;;;4.55;2.65;;;;;;;;;;5022313;28;20041;-60
2022/08/24 00:40:07;;;;;;;4.13;2.28;;;;;;;;;;5025519;28;20096;-61
2022/08/24 00:42:34;;;;;;;6.45;2.63;;;;;;;;;;5024956;28;20033;-59
2022/08/24 00:45:01;;;;;;;5.35;2.70;;;;;;;;;;5026080;28;20052;-59
2022/08/24 00:47:31;;;;;;;3.85;2.22;;;;;;;;;;5023339;28;20037;-58
2022/08/24 00:50:00;;;;;;;5.28;2.40;;;;;;;;;;5025515;28;20057;-61
2022/08/24 00:52:35;;;;;;;6.93;2.63;;;;;;;;;;5023652;28;20656;-57
2022/08/24 00:55:05;;;;;;;7.47;2.53;;;;;;;;;;5021549;28;20042;-59
2022/08/24 00:57:33;;;;;;;7.68;2.65;;;;;;;;;;5022140;28;20045;-60
2022/08/24 01:00:05;;;;;;;6.93;3.10;;;;;;;;;;5022862;28;20506;-62
2022/08/24 01:02:34;;;;;;;5.93;2.97;;;;;;;;;;5022301;28;20089;-58
2022/08/24 01:05:02;;;;;;;6.03;2.45;;;;;;;;;;5023638;28;20041;-59
2022/08/24 01:07:30;;;;;;;5.00;2.70;;;;;;;;;;5021883;28;20049;-60
2022/08/24 01:09:58;;;;;;;5.53;2.63;;;;;;;;;;5021888;28;20653;-57
2022/08/24 01:12:26;;;;;;;4.28;2.22;;;;;;;;;;5023780;28;20042;-58
2022/08/24 01:14:53;;;;;;;6.93;2.72;;;;;;;;;;5020835;28;20038;-58
2022/08/24 01:20:06;;;;;;;4.72;2.42;;;;;;;;;;5023893;28;20413;-59
2022/08/24 01:22:52;;;;;;;6.28;2.50;;;;;;;;;;5023467;28;20033;-58
2022/08/24 01:25:19;;;;;;;8.82;2.83;;;;;;;;;;5022684;28;20132;-57
2022/08/24 01:27:46;;;;;;;5.20;2.78;;;;;;;;;;5020881;28;20041;-59
2022/08/24 01:30:13;;;;;;;5.65;2.50;;;;;;;;;;5021978;28;20052;-57
2022/08/24 01:32:41;;;;;;;5.00;2.75;;;;;;;;;;5019958;28;20040;-58
2022/08/24 01:35:08;;;;;;;5.30;2.60;;;;;;;;;;5023688;28;20490;-59
2022/08/24 01:37:35;;;;;;;5.25;2.35;;;;;;;;;;5021258;28;20038;-58
2022/08/24 01:40:05;;;;;;;4.20;2.28;;;;;;;;;;5023031;28;20527;-58
2022/08/24 01:42:33;;;;;;;4.53;2.50;;;;;;;;;;5024732;28;20395;-59
2022/08/24 01:45:00;;;;;;;8.18;2.55;;;;;;;;;;5027156;28;20086;-58
2022/08/24 01:47:27;;;;;;;4.57;2.40;;;;;;;;;;5022076;28;20083;-58
2022/08/24 01:49:54;;;;;;;6.35;2.75;;;;;;;;;;5023346;28;20048;-59
2022/08/24 01:52:22;;;;;;;4.68;2.65;;;;;;;;;;5023314;28;20071;-58
2022/08/24 01:54:49;;;;;;;5.90;2.83;;;;;;;;;;5024719;28;20447;-58
2022/08/24 01:57:16;;;;;;;6.30;2.70;;;;;;;;;;5021510;28;20120;-59
2022/08/24 01:59:43;;;;;;;5.38;2.20;;;;;;;;;;5017996;28;20057;-57
2022/08/24 02:02:29;;;;;;;5.38;2.80;;;;;;;;;;5021933;28;20037;-60
2022/08/24 02:04:56;;;;;;;5.38;2.85;;;;;;;;;;5021757;28;20045;-60
2022/08/24 02:07:23;;;;;;;7.05;3.00;;;;;;;;;;5019323;28;20775;-60
2022/08/24 02:09:50;;;;;;;5.43;2.72;;;;;;;;;;5022190;28;20042;-58
2022/08/24 02:12:17;;;;;;;5.82;2.55;;;;;;;;;;5020999;28;20041;-59
2022/08/24 02:14:43;;;;;;;5.68;3.00;;;;;;;;;;5019693;28;20144;-59
2022/08/24 02:17:10;;;;;;;4.97;2.88;;;;;;;;;;5020811;28;20057;-59
2022/08/24 02:19:37;;;;;;;5.30;2.97;;;;;;;;;;5015223;28;20053;-59
2022/08/24 02:22:04;;;;;;;5.97;2.80;;;;;;;;;;5021365;28;20352;-59
2022/08/24 02:24:31;;;;;;;5.20;3.08;;;;;;;;;;5019981;28;20034;-59
2022/08/24 02:26:58;;;;;;;5.70;2.78;;;;;;;;;;5021939;28;20890;-60
2022/08/24 02:29:26;;;;;;;4.95;2.95;;;;;;;;;;5020909;28;20033;-59
2022/08/24 02:31:52;;;;;;;5.25;2.83;;;;;;;;;;5014222;28;20069;-59
2022/08/24 02:34:20;;;;;;;5.78;3.20;;;;;;;;;;5021268;28;20566;-60
2022/08/24 02:36:47;;;;;;;4.97;3.00;;;;;;;;;;5021612;28;20033;-59
2022/08/24 02:39:13;;;;;;;5.68;3.17;;;;;;;;;;5019440;28;20104;-59
2022/08/24 02:41:40;;;;;;;5.05;2.70;;;;;;;;;;5019778;28;20131;-60
2022/08/24 02:44:07;;;;;;;6.55;3.28;;;;;;;;;;5020189;28;20042;-58
2022/08/24 02:46:33;;;;;;;6.95;2.60;;;;;;;;;;5019408;28;20069;-59
2022/08/24 02:49:00;;;;;;;5.00;2.60;;;;;;;;;;5020575;28;20041;-59
2022/08/24 02:51:31;;;;;;;4.65;2.58;;;;;;;;;;5020582;28;20539;-59
2022/08/24 02:54:01;;;;;;;6.35;3.20;;;;;;;;;;5021300;28;20032;-59
2022/08/24 02:56:31;;;;;;;6.35;3.28;;;;;;;;;;5018864;28;20187;-58
2022/08/24 02:58:59;;;;;;;5.18;2.72;;;;;;;;;;5020120;28;20057;-58
2022/08/24 03:01:26;;;;;;;5.88;2.80;;;;;;;;;;5019473;28;20096;-60
2022/08/24 03:03:53;;;;;;;8.02;3.22;;;;;;;;;;5020499;28;20037;-62
2022/08/24 03:06:19;;;;;;;7.03;3.10;;;;;;;;;;5018852;28;20506;-55
2022/08/24 03:08:46;;;;;;;7.82;3.60;;;;;;;;;;5019995;28;20689;-57
2022/08/24 03:11:13;;;;;;;6.40;3.30;;;;;;;;;;5020694;28;20041;-59
2022/08/24 03:13:40;;;;;;;6.70;3.35;;;;;;;;;;5020530;28;20037;-60
2022/08/24 03:16:07;;;;;;;7.60;3.83;;;;;;;;;;5020453;28;20426;-59
2022/08/24 03:18:33;;;;;;;6.63;3.67;;;;;;;;;;5019764;28;20052;-59
2022/08/24 03:21:01;;;;;;;6.25;3.05;;;;;;;;;;5020552;28;20054;-59
2022/08/24 03:23:28;;;;;;;5.65;2.95;;;;;;;;;;5021216;28;20044;-59
2022/08/24 03:25:55;;;;;;;7.70;3.15;;;;;;;;;;5019197;28;20079;-57
2022/08/24 03:28:23;;;;;;;6.05;3.22;;;;;;;;;;5019032;28;20128;-60
2022/08/24 03:30:49;;;;;;;6.85;3.55;;;;;;;;;;5031048;28;21098;-59
2022/08/24 03:33:16;;;;;;;5.70;3.20;;;;;;;;;;5020499;28;20498;-59
2022/08/24 03:35:43;;;;;;;7.00;3.50;;;;;;;;;;5019827;28;20127;-59
2022/08/24 03:38:09;;;;;;;6.90;4.00;;;;;;;;;;5019247;28;20045;-58
2022/08/24 03:40:36;;;;;;;8.23;3.97;;;;;;;;;;5019676;28;20557;-59
2022/08/24 03:43:02;;;;;;;8.15;3.67;;;;;;;;;;5020700;28;20107;-60
2022/08/24 03:45:29;;;;;;;6.55;3.40;;;;;;;;;;5019628;28;20034;-59
2022/08/24 03:47:56;;;;;;;8.95;4.07;;;;;;;;;;5020758;28;20430;-57
2022/08/24 03:50:23;;;;;;;6.35;3.47;;;;;;;;;;5019943;28;20102;-58
2022/08/24 03:52:50;;;;;;;6.53;3.75;;;;;;;;;;5020305;28;20049;-58
2022/08/24 03:55:17;;;;;;;6.30;3.38;;;;;;;;;;5019771;28;20037;-60
2022/08/24 03:57:44;;;;;;;6.38;3.63;;;;;;;;;;5018582;28;20042;-59
2022/08/24 04:00:12;;;;;;;7.30;3.55;;;;;;;;;;5020726;28;20053;-60
2022/08/24 04:02:38;;;;;;;6.70;3.50;;;;;;;;;;5019368;28;20049;-59
2022/08/24 04:05:06;;;;;;;7.35;3.63;;;;;;;;;;5019417;28;20060;-58
2022/08/24 04:07:33;;;;;;;9.32;3.47;;;;;;;;;;5018669;28;20033;-58
2022/08/24 04:10:00;;;;;;;5.95;3.42;;;;;;;;;;5020373;28;20441;-60
2022/08/24 04:12:27;;;;;;;8.07;3.72;;;;;;;;;;5016862;28;20042;-58
2022/08/24 04:14:54;;;;;;;7.80;3.35;;;;;;;;;;5019738;28;20112;-59
2022/08/24 04:17:21;;;;;;;7.78;3.53;;;;;;;;;;5019229;28;20047;-60
2022/08/24 04:19:57;;;;;;;5.75;3.58;;;;;;;;;;5019905;28;20105;-58
2022/08/24 04:22:24;;;;;;;7.55;3.33;;;;;;;;;;5021679;28;20123;-59
2022/08/24 04:24:51;;;;;;;6.05;3.20;;;;;;;;;;5021690;28;20068;-59
2022/08/24 04:27:18;;;;;;;7.40;3.67;;;;;;;;;;5021099;28;20040;-60
2022/08/24 04:29:45;;;;;;;6.65;3.60;;;;;;;;;;5019689;28;20037;-60
2022/08/24 04:32:13;;;;;;;6.60;3.47;;;;;;;;;;5021214;28;20164;-60
2022/08/24 04:34:39;;;;;;;6.10;3.40;;;;;;;;;;5039764;28;20059;-60
2022/08/24 04:37:06;;;;;;;6.30;3.25;;;;;;;;;;5040766;28;20037;-60
2022/08/24 04:39:33;;;;;;;8.23;3.40;;;;;;;;;;5039159;28;20045;-59
2022/08/24 04:42:00;;;;;;;7.38;3.65;;;;;;;;;;5041970;28;20037;-59
2022/08/24 04:44:26;;;;;;;9.80;4.03;;;;;;;;;;5039801;28;20044;-60
2022/08/24 04:46:53;;;;;;;8.30;3.78;;;;;;;;;;5038657;28;20114;-59
2022/08/24 04:49:20;;;;;;;5.88;3.55;;;;;;;;;;5041814;28;20041;-58
2022/08/24 04:51:47;;;;;;;10.75;3.55;;;;;;;;;;5040377;28;20045;-60
2022/08/24 04:54:13;;;;;;;5.90;3.58;;;;;;;;;;5044286;28;20937;-59
2022/08/24 04:56:40;;;;;;;5.50;3.10;;;;;;;;;;5041947;28;20343;-63
2022/08/24 04:59:07;;;;;;;6.50;3.63;;;;;;;;;;5043925;28;20056;-61
2022/08/24 05:01:33;;;;;;;6.63;3.47;;;;;;;;;;5042524;28;20159;-61
2022/08/24 05:04:01;;;;;;;9.52;3.78;;;;;;;;;;5043725;28;20045;-60
2022/08/24 05:06:29;;;;;;;7.65;3.80;;;;;;;;;;5040825;28;20120;-59
2022/08/24 05:08:55;;;;;;;7.80;3.38;;;;;;;;;;5042513;28;20378;-60
2022/08/24 05:11:23;;;;;;;5.55;3.38;;;;;;;;;;5041786;28;20576;-59
2022/08/24 05:13:51;;;;;;;6.00;3.35;;;;;;;;;;5042113;28;20416;-58
2022/08/24 05:16:18;;;;;;;7.47;3.75;;;;;;;;;;5041510;28;20060;-60
2022/08/24 05:18:45;;;;;;;6.22;3.35;;;;;;;;;;5040953;28;20093;-60
2022/08/24 05:21:13;;;;;;;6.53;3.28;;;;;;;;;;5042456;28;20045;-59
2022/08/24 05:23:41;;;;;;;6.47;3.80;;;;;;;;;;5041674;28;20120;-59
2022/08/24 05:26:09;;;;;;;6.75;3.88;;;;;;;;;;5041844;28;20037;-61
2022/08/24 05:28:36;;;;;;;8.02;4.35;;;;;;;;;;5041499;28;20544;-59
2022/08/24 05:31:09;;;;;;;6.47;3.95;;;;;;;;;;5036223;28;20037;-59
2022/08/24 05:33:36;;;;;;;7.07;4.15;;;;;;;;;;5020161;28;20077;-58
2022/08/24 05:36:03;;;;;;;7.28;4.28;;;;;;;;;;5034223;28;21792;-59
2022/08/24 05:38:31;;;;;;;8.68;4.50;;;;;;;;;;5021890;28;20131;-59
2022/08/24 05:40:57;;;;;;;7.32;3.95;;;;;;;;;;5023665;28;20045;-60
2022/08/24 05:43:24;;;;;;;10.27;3.92;;;;;;;;;;5021251;28;20041;-60
2022/08/24 05:45:50;;;;;;;7.38;3.80;;;;;;;;;;5021543;28;20052;-60
2022/08/24 05:48:17;;;;;;;7.07;3.90;;;;;;;;;;5019101;28;20042;-60
2022/08/24 05:50:44;;;;;;;7.70;4.20;;;;;;;;;;5020028;28;20048;-57
2022/08/24 05:53:11;;;;;;;6.90;4.22;;;;;;;;;;5020956;28;20041;-60
2022/08/24 05:55:39;;;;;;;8.32;3.83;;;;;;;;;;5021528;28;20099;-59
2022/08/24 05:58:06;;;;;;;9.50;3.75;;;;;;;;;;5021288;28;20029;-61
2022/08/24 06:00:33;;;;;;;6.85;4.22;;;;;;;;;;5018826;28;20060;-60
2022/08/24 06:02:59;;;;;;;8.00;4.20;;;;;;;;;;5021687;28;20045;-60
2022/08/24 06:05:26;;;;;;;12.52;4.75;;;;;;;;;;5021766;28;20062;-60
2022/08/24 06:07:52;;;;;;;9.57;4.80;;;;;;;;;;5021344;28;20036;-61
2022/08/24 06:10:19;;;;;;;8.85;4.15;;;;;;;;;;5021451;28;20394;-60
2022/08/24 06:12:47;;;;;;;9.77;4.53;;;;;;;;;;5022114;28;20049;-60
2022/08/24 06:15:14;;;;;;;8.48;4.35;;;;;;;;;;5019995;28;20060;-58
2022/08/24 06:17:41;;;;;;;7.13;4.45;;;;;;;;;;5018851;28;20041;-60
2022/08/24 06:20:08;;;;;;;7.15;4.30;;;;;;;;;;5021663;28;20054;-60
2022/08/24 06:22:34;;;;;;;7.20;4.65;;;;;;;;;;5021986;28;20061;-59
2022/08/24 06:27:45;;;;;;;7.47;4.40;;;;;;;;;;5024269;28;20095;-60
2022/08/24 06:30:12;;;;;;;7.40;4.57;;;;;;;;;;5036353;28;20057;-63
2022/08/24 06:32:42;;;;;;;8.82;4.68;;;;;;;;;;5022378;28;20136;-61
2022/08/24 06:35:09;;;;;;;9.85;4.47;;;;;;;;;;5025526;28;20529;-60
2022/08/24 06:37:36;;;;;;;12.73;5.20;;;;;;;;;;5023038;28;20042;-60
2022/08/24 06:40:03;;;;;;;8.57;5.13;;;;;;;;;;5025204;28;20500;-60
2022/08/24 06:42:30;;;;;;;9.23;4.68;;;;;;;;;;5024994;28;20356;-60
2022/08/24 06:44:57;;;;;;;10.38;5.10;;;;;;;;;;5025812;28;20037;-60
2022/08/24 06:47:23;;;;;;;7.65;4.80;;;;;;;;;;5021553;28;20030;-59
2022/08/24 06:49:50;;;;;;;9.55;4.63;;;;;;;;;;5025010;28;20073;-60
2022/08/24 06:52:16;;;;;;;7.47;4.38;;;;;;;;;;5023439;28;20059;-60
2022/08/24 06:54:43;;;;;;;9.20;5.20;;;;;;;;;;5024379;28;20092;-60
2022/08/24 06:57:09;;;;;;;10.45;5.15;;;;;;;;;;5022494;28;20103;-60
2022/08/24 06:59:36;;;;;;;12.70;5.15;;;;;;;;;;5022851;28;20049;-60
2022/08/24 07:02:03;;;;;;;7.95;5.00;;;;;;;;;;5023105;28;20048;-60
2022/08/24 07:04:30;;;;;;;9.35;5.50;;;;;;;;;;5022047;28;20140;-59
2022/08/24 07:06:56;;;;;;;7.45;4.97;;;;;;;;;;5021814;28;20037;-61
2022/08/24 07:09:26;;;;;;;9.45;5.05;;;;;;;;;;5022004;28;20068;-60
2022/08/24 07:11:53;;;;;;;9.57;5.50;;;;;;;;;;5020575;28;20449;-61
2022/08/24 07:14:20;;;;;;;11.23;5.00;;;;;;;;;;5022181;28;20130;-60
2022/08/24 07:16:47;;;;;;;9.52;5.45;;;;;;;;;;5022659;28;20106;-60
2022/08/24 07:19:13;;;;;;;10.27;5.30;;;;;;;;;;5020903;28;20693;-61
2022/08/24 07:21:41;;;;;;;11.07;5.60;;;;;;;;;;5021316;28;20060;-61
2022/08/24 07:24:08;;;;;;;7.22;4.80;;;;;;;;;;5023049;28;20049;-61
2022/08/24 07:26:34;;;;;;;8.20;5.18;;;;;;;;;;5019821;28;20177;-61
2022/08/24 07:29:05;;;;;;;10.32;5.10;;;;;;;;;;5022278;28;20346;-61
2022/08/24 07:31:32;;;;;;;10.27;5.00;;;;;;;;;;5022138;28;20053;-61
2022/08/24 07:33:59;;;;;;;10.50;5.47;;;;;;;;;;5021114;28;20061;-60
2022/08/24 07:36:25;;;;;;;9.32;5.50;;;;;;;;;;5020824;28;20140;-61
2022/08/24 07:38:52;;;;;;;9.60;4.85;;;;;;;;;;5020367;28;20072;-61
2022/08/24 07:41:19;;;;;;;7.85;5.35;;;;;;;;;;5019675;28;20540;-61
2022/08/24 07:43:47;;;;;;;10.27;5.18;;;;;;;;;;5018692;28;20045;-60
2022/08/24 07:46:13;;;;;;;8.55;5.25;;;;;;;;;;5019719;28;20026;-61
2022/08/24 07:48:40;;;;;;;12.27;6.00;;;;;;;;;;5019301;28;20057;-60
2022/08/24 07:51:08;;;;;;;11.18;5.97;;;;;;;;;;5020299;28;20041;-61
2022/08/24 07:53:34;;;;;;;8.95;5.35;;;;;;;;;;5018539;28;20183;-61
2022/08/24 07:56:01;;;;;;;12.82;5.78;;;;;;;;;;5019391;28;20038;-61
2022/08/24 07:58:28;;;;;;;9.88;5.43;;;;;;;;;;5019814;28;20037;-61
2022/08/24 08:00:54;;;;;;;11.40;6.47;;;;;;;;;;5019918;28;20037;-60
2022/08/24 08:03:22;;;;;;;10.93;6.40;;;;;;;;;;5035448;28;20040;-61
2022/08/24 08:05:48;;;;;;;10.23;5.90;;;;;;;;;;5038004;28;20037;-61
2022/08/24 08:08:15;;;;;;;10.60;5.57;;;;;;;;;;5024608;28;20034;-61
2022/08/24 08:10:42;;;;;;;12.93;6.03;;;;;;;;;;5020638;28;20038;-59
2022/08/24 08:13:09;;;;;;;11.45;6.50;;;;;;;;;;5020955;28;20052;-60
2022/08/24 08:15:35;;;;;;;9.68;6.07;;;;;;;;;;5018169;28;20108;-60
2022/08/24 08:18:02;;;;;;;12.57;6.70;;;;;;;;;;5019060;28;20447;-60
2022/08/24 08:20:28;;;;;;;11.80;5.75;;;;;;;;;;5020753;28;20068;-60
2022/08/24 08:25:40;;;;;;;11.00;7.00;;;;;;;;;;5041988;28;20080;-60
2022/08/24 08:28:07;;;;;;;11.65;6.43;;;;;;;;;;5043085;28;20045;-61
2022/08/24 08:30:33;;;;;;;9.55;6.63;;;;;;;;;;5032257;28;20063;-61
2022/08/24 08:33:01;;;;;;;13.65;6.90;;;;;;;;;;5023896;28;20044;-60
2022/08/24 08:35:28;;;;;;;10.85;6.70;;;;;;;;;;5023008;28;20049;-61
2022/08/24 08:37:56;;;;;;;11.00;6.88;;;;;;;;;;5023316;28;20095;-61
2022/08/24 08:40:34;;;;;;;12.82;6.65;;;;;;;;;;5023443;28;20045;-60
2022/08/24 08:43:00;;;;;;;9.45;6.50;;;;;;;;;;5023155;28;20156;-61
2022/08/24 08:45:47;;;;;;;10.65;6.28;;;;;;;;;;5036021;28;20775;-61
2022/08/24 08:48:33;;;;;;;9.35;6.40;;;;;;;;;;5020626;28;20028;-61
2022/08/24 08:51:13;;;;;;;11.23;6.50;;;;;;;;;;5041558;28;20065;-61
2022/08/24 08:53:55;;;;;;;12.13;7.00;;;;;;;;;;5039025;28;20115;-61
2022/08/24 08:56:24;;;;;;;12.15;7.53;;;;;;;;;;5020036;28;20048;-61
2022/08/24 08:58:51;;;;;;;12.30;7.47;;;;;;;;;;5022865;28;20422;-61
2022/08/24 09:01:41;;;;;;;14.40;7.90;;;;;;;;;;5022987;28;20042;-61
2022/08/24 09:04:23;;;;;;;11.35;7.47;;;;;;;;;;5021916;28;20060;-59
2022/08/24 09:06:53;;;;;;;14.98;7.35;;;;;;;;;;5021659;28;20045;-60
2022/08/24 09:09:35;;;;;;;14.75;6.93;;;;;;;;;;5023539;28;20069;-61
2022/08/24 09:12:14;;;;;;;12.88;7.15;;;;;;;;;;5023240;28;20052;-61
2022/08/24 09:14:56;;;;;;;10.13;7.05;;;;;;;;;;5023570;28;20511;-61
2022/08/24 09:17:44;;;;;;;10.55;7.30;;;;;;;;;;5022852;28;20167;-61
2022/08/24 09:20:11;;;;;;;12.40;7.03;;;;;;;;;;5024297;28;20618;-61
2022/08/24 09:22:48;;;;;;;11.95;6.82;;;;;;;;;;5022009;28;20037;-60
2022/08/24 09:25:23;;;;;;;12.20;6.97;;;;;;;;;;5024146;28;20410;-61
2022/08/24 09:27:58;;;;;;;10.52;6.55;;;;;;;;;;5020639;28;20091;-58
2022/08/24 09:30:26;;;;;;;11.10;6.95;;;;;;;;;;5038573;28;20044;-60
2022/08/24 09:33:02;;;;;;;12.93;7.50;;;;;;;;;;5024079;28;20041;-60
2022/08/24 09:35:31;;;;;;;12.05;7.60;;;;;;;;;;5022190;28;20554;-60
2022/08/24 09:38:00;;;;;;;11.13;7.47;;;;;;;;;;5021955;28;20048;-60
2022/08/24 09:40:33;;;;;;;10.50;7.18;;;;;;;;;;5022103;28;20038;-60
2022/08/24 09:43:08;;;;;;;12.00;7.20;;;;;;;;;;5023275;28;20080;-60
2022/08/24 09:45:50;;;;;;;11.90;7.30;;;;;;;;;;5022575;28;20064;-60
2022/08/24 09:48:25;;;;;;;11.90;7.53;;;;;;;;;;5024042;28;20048;-60
2022/08/24 09:50:58;;;;;;;13.02;6.90;;;;;;;;;;5022486;28;20502;-60
2022/08/24 09:53:27;;;;;;;10.77;6.97;;;;;;;;;;5021732;28;20063;-60
2022/08/24 09:56:12;;;;;;;12.43;7.00;;;;;;;;;;5022365;28;20502;-60
2022/08/24 09:58:57;;;;;;;10.80;6.65;;;;;;;;;;5023825;28;21998;-61
2022/08/24 10:01:27;;;;;;;9.48;6.47;;;;;;;;;;5022234;28;20060;-60
2022/08/24 10:03:54;;;;;;;10.32;5.72;;;;;;;;;;5022410;28;20060;-61
2022/08/24 10:06:20;;;;;;;10.27;6.28;;;;;;;;;;5021723;28;20053;-61
2022/08/24 10:09:05;;;;;;;9.50;6.20;;;;;;;;;;5022310;28;21737;-61
2022/08/24 10:12:00;;;;;;;9.57;6.25;;;;;;;;;;5020161;28;20069;-60
2022/08/24 10:14:39;;;;;;;10.55;6.53;;;;;;;;;;5017149;28;20560;-60
2022/08/24 10:17:24;;;;;;;10.30;6.28;;;;;;;;;;5022083;28;20054;-60
2022/08/24 10:19:50;;;;;;;13.45;6.50;;;;;;;;;;5020602;28;20062;-60
2022/08/24 10:22:26;;;;;;;11.55;6.85;;;;;;;;;;5023703;28;20087;-60
2022/08/24 10:25:22;;;;;;;13.07;6.88;;;;;;;;;;5018956;28;20109;-60
2022/08/24 10:27:55;;;;;;;13.95;7.05;;;;;;;;;;5020663;28;20041;-60
2022/08/24 10:30:40;;;;;;;12.30;7.38;;;;;;;;;;5019519;28;20045;-61
2022/08/24 10:33:13;;;;;;;10.68;7.18;;;;;;;;;;5021134;28;20784;-60
2022/08/24 10:35:59;;;;;;;11.38;6.72;;;;;;;;;;5020977;28;20470;-60
2022/08/24 10:41:34;;;;;;;9.32;6.72;;;;;;;;;;5020647;28;20553;-61
2022/08/24 10:44:01;;;;;;;9.48;6.00;;;;;;;;;;5025177;28;20129;-61
2022/08/24 10:46:27;;;;;;;11.90;7.07;;;;;;;;;;5039894;28;20040;-61
2022/08/24 10:49:05;;;;;;;11.13;7.35;;;;;;;;;;5040058;28;20044;-61
2022/08/24 10:52:07;;;;;;;13.80;7.35;;;;;;;;;;5040336;28;20551;-60
2022/08/24 10:54:34;;;;;;;13.48;7.70;;;;;;;;;;4981623;28;20042;-61
2022/08/24 10:57:15;;;;;;;11.35;7.80;;;;;;;;;;5032810;28;20486;-60
2022/08/24 10:59:42;;;;;;;9.85;7.05;;;;;;;;;;5028499;28;20045;-60
2022/08/24 11:02:29;;;;;;;12.35;8.07;;;;;;;;;;5020468;28;20067;-59
2022/08/24 11:05:00;;;;;;;11.80;8.20;;;;;;;;;;5019775;28;20124;-60
2022/08/24 11:07:27;;;;;;;10.95;7.40;;;;;;;;;;5020223;28;20121;-60
2022/08/24 11:09:55;;;;;;;11.20;7.30;;;;;;;;;;5019390;28;20123;-59
2022/08/24 11:12:32;;;;;;;14.15;8.30;;;;;;;;;;5019543;28;20080;-59
2022/08/24 11:15:00;;;;;;;13.07;7.53;;;;;;;;;;5021411;28;21600;-59
2022/08/24 11:17:29;;;;;;;12.52;8.18;;;;;;;;;;5020800;28;20068;-59
2022/08/24 11:19:56;;;;;;;14.48;8.65;;;;;;;;;;5020491;28;20140;-59
2022/08/24 11:22:29;;;;;;;11.38;7.80;;;;;;;;;;5022545;28;20363;-60
2022/08/24 11:25:03;;;;;;;12.77;8.55;;;;;;;;;;5021136;28;20041;-60
2022/08/24 11:27:30;;;;;;;14.98;9.48;;;;;;;;;;5022183;28;20045;-60
2022/08/24 11:29:59;;;;;;;13.65;9.23;;;;;;;;;;5021242;28;20100;-60
2022/08/24 11:32:27;;;;;;;14.57;9.38;;;;;;;;;;5019641;28;20066;-60
2022/08/24 11:34:54;;;;;;;13.48;8.80;;;;;;;;;;5021960;28;20125;-60
2022/08/24 11:37:30;;;;;;;13.25;9.45;;;;;;;;;;5020859;28;20034;-59
2022/08/24 11:39:56;;;;;;;14.23;8.98;;;;;;;;;;5020766;28;20053;-60
2022/08/24 11:42:24;;;;;;;15.88;9.70;;;;;;;;;;5021229;28;20038;-60
2022/08/24 11:45:27;;;;;;;16.08;9.77;;;;;;;;;;5021885;28;20044;-60
2022/08/24 11:48:12;;;;;;;13.82;9.27;;;;;;;;;;4984155;28;20049;-60
2022/08/24 11:51:01;;;;;;;14.35;9.15;;;;;;;;;;5022754;28;20049;-60
2022/08/24 11:53:31;;;;;;;15.15;9.50;;;;;;;;;;5040896;28;20049;-60
2022/08/24 11:56:09;;;;;;;16.08;9.55;;;;;;;;;;5041863;28;20048;-60
2022/08/24 11:58:36;;;;;;;17.55;9.85;;;;;;;;;;5042146;28;20119;-59
2022/08/24 12:01:02;;;;;;;21.65;10.25;;;;;;;;;;5044175;28;20783;-59
2022/08/24 12:03:38;;;;;;;15.95;9.75;;;;;;;;;;5044557;28;20029;-59
2022/08/24 12:06:11;;;;;;;14.82;9.40;;;;;;;;;;5059764;28;20045;-60
2022/08/24 12:08:53;;;;;;;14.35;10.02;;;;;;;;;;5042354;28;20036;-59
2022/08/24 12:11:26;;;;;;;17.20;10.50;;;;;;;;;;5043330;28;20630;-59
2022/08/24 12:14:08;;;;;;;16.13;10.48;;;;;;;;;;5044903;28;20297;-62
2022/08/24 12:16:38;;;;;;;17.02;10.70;;;;;;;;;;5042300;28;20049;-59
2022/08/24 12:19:17;;;;;;;14.98;10.60;;;;;;;;;;5042043;28;20454;-59
2022/08/24 12:21:47;;;;;;;18.05;10.75;;;;;;;;;;5041217;28;20045;-59
2022/08/24 12:24:36;;;;;;;16.88;10.20;;;;;;;;;;5043502;28;20049;-60
2022/08/24 12:27:06;;;;;;;18.88;10.68;;;;;;;;;;5018585;28;20588;-59
2022/08/24 12:29:51;;;;;;;16.75;10.73;;;;;;;;;;5021811;28;20041;-60
2022/08/24 12:32:21;;;;;;;17.23;11.55;;;;;;;;;;5023739;28;20780;-62
2022/08/24 12:35:00;;;;;;;22.23;10.50;;;;;;;;;;5025090;28;20112;-55
2022/08/24 12:37:36;;;;;;;15.90;10.23;;;;;;;;;;5026633;28;20045;-53
2022/08/24 12:40:07;;;;;;;15.75;11.23;;;;;;;;;;5025617;28;20160;-58
2022/08/24 12:42:45;;;;;;;16.30;10.85;;;;;;;;;;5024765;28;20033;-57
2022/08/24 12:45:13;;;;;;;19.13;11.38;;;;;;;;;;5027203;28;20123;-56
2022/08/24 12:47:46;;;;;;;16.05;10.77;;;;;;;;;;5025933;28;20037;-56
2022/08/24 12:50:13;;;;;;;;;;;;;;;;;;5024526;28;20049;-57
2022/08/24 12:53:05;;;;;;;17.40;10.85;;;;;;;;;;5026051;28;19921;-57
2022/08/24 12:55:47;;;;;;;15.85;11.00;;;;;;;;;;5036654;28;20049;-57
2022/08/24 12:58:32;;;;;;;17.58;11.50;;;;;;;;;;5024282;28;20042;-57
2022/08/24 13:01:02;;;;;;;17.98;11.43;;;;;;;;;;5021712;28;20037;-56
2022/08/24 13:03:34;;;;;;;15.35;10.55;;;;;;;;;;5023156;28;20041;-51
2022/08/24 13:06:03;;;;;;;21.35;12.32;;;;;;;;;;5023429;28;20053;-58
2022/08/24 13:08:41;;;;;;;16.48;11.40;;;;;;;;;;5023306;28;20554;-59
2022/08/24 13:11:27;;;;;;;16.42;11.63;;;;;;;;;;5022781;28;20144;-61
2022/08/24 13:13:54;;;;;;;20.48;11.38;;;;;;;;;;5022750;28;20064;-59
2022/08/24 13:16:39;;;;;;;17.35;11.55;;;;;;;;;;5022371;28;20041;-60
2022/08/24 13:19:12;;;;;;;17.00;11.40;;;;;;;;;;5022854;28;20164;-60
2022/08/24 13:21:44;;;;;;;21.50;11.70;;;;;;;;;;5021998;28;20049;-61
2022/08/24 13:24:29;;;;;;;16.77;11.27;;;;;;;;;;5022589;28;20034;-60
2022/08/24 13:26:56;;;;;;;20.02;11.68;;;;;;;;;;5023290;28;20099;-61
2022/08/24 13:29:28;;;;;;;17.23;12.23;;;;;;;;;;5022785;28;20229;-60
2022/08/24 13:31:58;;;;;;;14.75;10.93;;;;;;;;;;5025729;28;20049;-60
2022/08/24 13:34:37;;;;;;;17.27;11.32;;;;;;;;;;5022975;28;20611;-59
2022/08/24 13:37:14;;;;;;;19.17;11.82;;;;;;;;;;5023866;28;20530;-60
2022/08/24 13:40:14;;;;;;;17.20;12.20;;;;;;;;;;5022446;28;20169;-59
2022/08/24 13:43:09;;;;;;;18.58;11.52;;;;;;;;;;4999267;28;20159;-60
2022/08/24 13:45:38;;;;;;;15.27;11.00;;;;;;;;;;5013117;28;20056;-61
2022/08/24 13:48:08;;;;;;;16.35;10.80;;;;;;;;;;5020220;28;20041;-56
2022/08/24 13:50:52;;;;;;;18.98;11.07;;;;;;;;;;5020265;28;20038;-58
2022/08/24 13:53:34;;;;;;;17.45;10.63;;;;;;;;;;5020423;28;20056;-60
2022/08/24 13:56:27;;;;;;;17.80;10.57;;;;;;;;;;5024157;28;20046;-61
2022/08/24 13:59:03;;;;;;;16.10;10.97;;;;;;;;;;5000357;28;20049;-59
2022/08/24 14:01:32;;;;;;;15.52;10.90;;;;;;;;;;5024089;28;20106;-60
2022/08/24 14:04:16;;;;;;;16.90;10.93;;;;;;;;;;5022923;28;20049;-60
2022/08/24 14:07:15;;;;;;;18.05;10.32;;;;;;;;;;5022624;28;20039;-60
2022/08/24 14:09:42;;;;;;;15.80;11.00;;;;;;;;;;4984262;28;20053;-60
2022/08/24 14:12:09;;;;;;;19.25;10.32;;;;;;;;;;5023386;28;20045;-60
2022/08/24 14:14:49;;;;;;;16.33;10.25;;;;;;;;;;5020959;28;20049;-60
2022/08/24 14:20:22;;;;;;;18.13;10.82;;;;;;;;;;5018563;28;20107;-59
2022/08/24 14:22:56;;;;;;;17.58;11.05;;;;;;;;;;5020200;28;20045;-60
2022/08/24 14:25:25;;;;;;;15.90;10.93;;;;;;;;;;5021731;28;20033;-60
2022/08/24 14:27:55;;;;;;;18.20;11.48;;;;;;;;;;5021704;28;20040;-58
2022/08/24 14:30:22;;;;;;;14.80;10.05;;;;;;;;;;5020368;28;20129;-59
2022/08/24 14:32:57;;;;;;;17.63;10.70;;;;;;;;;;5021158;28;20029;-61
2022/08/24 14:35:36;;;;;;;17.13;11.70;;;;;;;;;;5021871;28;20047;-59
2022/08/24 14:38:26;;;;;;;15.48;10.70;;;;;;;;;;5023461;28;20053;-59
2022/08/24 14:40:57;;;;;;;15.07;10.80;;;;;;;;;;5028320;28;20049;-59
2022/08/24 14:43:27;;;;;;;15.48;11.32;;;;;;;;;;5040079;28;20978;-60
2022/08/24 14:46:06;;;;;;;16.75;11.05;;;;;;;;;;5041905;28;20037;-60
2022/08/24 14:48:42;;;;;;;17.33;10.45;;;;;;;;;;5039338;28;20114;-60
2022/08/24 14:51:27;;;;;;;16.02;11.27;;;;;;;;;;5040406;28;20064;-59
2022/08/24 14:54:12;;;;;;;18.80;10.85;;;;;;;;;;5040445;28;20049;-60
2022/08/24 14:56:44;;;;;;;14.60;10.43;;;;;;;;;;5041830;28;20056;-60
2022/08/24 14:59:14;;;;;;;14.13;10.48;;;;;;;;;;5040454;28;20053;-59
2022/08/24 15:01:44;;;;;;;17.38;9.68;;;;;;;;;;5039121;28;20169;-59
2022/08/24 15:04:29;;;;;;;16.08;10.25;;;;;;;;;;5041015;28;20037;-59
2022/08/24 15:06:58;;;;;;;14.80;9.85;;;;;;;;;;5037685;28;20056;-59
2022/08/24 15:09:37;;;;;;;14.70;9.20;;;;;;;;;;5038590;28;20047;-56
2022/08/24 15:12:27;;;;;;;15.40;9.70;;;;;;;;;;5040686;28;20037;-61